createdAt,value
2022-08-10T00:01:54.283Z,8.07
2022-08-10T00:04:24.231Z,9.23
2022-08-10T00:06:55.729Z,8.50
2022-08-10T00:09:25.045Z,9.07
2022-08-10T00:11:52.831Z,9.35
2022-08-10T00:14:20.653Z,8.32
2022-08-10T00:16:48.745Z,9.60
2022-08-10T00:19:18.179Z,9.38
2022-08-10T00:21:47.525Z,9.00
2022-08-10T00:24:15.990Z,10.00
2022-08-10T00:28:02.084Z,9.27
2022-08-10T00:29:32.137Z,8.48
2022-08-10T00:31:59.930Z,8.70
2022-08-10T00:34:29.929Z,9.13
2022-08-10T00:36:59.093Z,9.15
2022-08-10T00:39:28.688Z,7.85
2022-08-10T00:42:06.398Z,8.00
2022-08-10T00:44:38.837Z,8.07
2022-08-10T00:47:36.397Z,8.38
2022-08-10T00:49:56.711Z,8.35
2022-08-10T00:52:26.777Z,7.57
2022-08-10T00:54:55.733Z,8.18
2022-08-10T00:57:25.559Z,8.53
2022-08-10T00:59:57.822Z,7.70
2022-08-10T01:02:31.846Z,8.02
2022-08-10T01:05:06.273Z,8.10
2022-08-10T01:08:20.889Z,7.82
2022-08-10T01:11:07.827Z,8.25
2022-08-10T01:14:04.649Z,7.22
2022-08-10T01:17:11.550Z,7.00
2022-08-10T01:20:31.097Z,7.30
2022-08-10T01:23:26.906Z,7.20
2022-08-10T01:26:47.187Z,7.05
2022-08-10T01:29:55.748Z,6.60
2022-08-10T01:33:03.256Z,6.47
2022-08-10T01:36:03.651Z,7.15
2022-08-10T01:38:42.453Z,7.38
2022-08-10T01:41:41.844Z,7.07
2022-08-10T01:44:27.621Z,7.90
2022-08-10T01:47:22.552Z,6.93
2022-08-10T01:49:59.338Z,7.60
2022-08-10T01:52:30.998Z,6.85
2022-08-10T01:54:59.728Z,7.07
2022-08-10T01:57:33.329Z,7.68
2022-08-10T02:00:03.492Z,6.93
2022-08-10T02:02:36.909Z,6.93
2022-08-10T02:05:07.916Z,7.70
2022-08-10T02:07:39.183Z,8.00
2022-08-10T02:10:12.757Z,7.97
2022-08-10T02:12:43.439Z,7.88
2022-08-10T02:15:18.455Z,7.55
2022-08-10T02:18:07.342Z,7.38
2022-08-10T02:20:55.743Z,7.37
2022-08-10T02:23:30.010Z,6.95
2022-08-10T02:26:01.488Z,7.43
2022-08-10T02:28:35.790Z,7.38
2022-08-10T02:31:40.425Z,7.15
2022-08-10T02:34:11.813Z,6.95
2022-08-10T02:36:48.259Z,6.82
2022-08-10T02:39:18.741Z,7.13
2022-08-10T02:45:03.060Z,7.65
2022-08-10T02:45:29.226Z,7.68
2022-08-10T02:48:24.683Z,7.68
2022-08-10T02:51:02.136Z,7.07
2022-08-10T02:53:56.292Z,7.88
2022-08-10T02:56:43.373Z,7.03
2022-08-10T02:59:39.956Z,6.43
2022-08-10T03:02:16.421Z,7.25
2022-08-10T03:04:55.995Z,6.82
2022-08-10T03:07:43.819Z,7.15
2022-08-10T03:10:49.979Z,7.68
2022-08-10T03:13:19.598Z,6.78
2022-08-10T03:15:50.467Z,6.68
2022-08-10T03:18:22.742Z,6.60
2022-08-10T03:20:53.444Z,7.05
2022-08-10T03:23:25.336Z,6.97
2022-08-10T03:25:59.362Z,7.15
2022-08-10T03:28:30.347Z,7.10
2022-08-10T03:31:01.669Z,7.20
2022-08-10T03:33:37.726Z,6.97
2022-08-10T03:36:42.600Z,7.55
2022-08-10T03:38:54.780Z,7.07
2022-08-10T03:41:54.143Z,7.13
2022-08-10T03:44:31.698Z,6.72
2022-08-10T03:47:16.477Z,7.70
2022-08-10T03:49:47.839Z,6.90
2022-08-10T03:52:18.909Z,7.53
2022-08-10T03:54:47.140Z,7.63
2022-08-10T03:57:15.034Z,6.75
2022-08-10T03:59:43.266Z,6.93
2022-08-10T04:02:42.133Z,7.00
2022-08-10T04:05:00.295Z,6.83
2022-08-10T04:07:29.696Z,7.07
2022-08-10T04:09:58.818Z,6.38
2022-08-10T04:12:26.822Z,6.35
2022-08-10T04:14:54.367Z,6.85
2022-08-10T04:18:03.363Z,7.05
2022-08-10T04:20:49.632Z,6.07
2022-08-10T04:23:24.282Z,6.40
2022-08-10T04:25:53.841Z,6.18
2022-08-10T04:28:21.834Z,6.50
2022-08-10T04:30:53.733Z,6.65
2022-08-10T04:33:24.961Z,6.05
2022-08-10T04:35:54.093Z,6.13
2022-08-10T04:38:24.920Z,6.50
2022-08-10T04:40:53.242Z,5.88
2022-08-10T04:43:21.201Z,6.03
2022-08-10T04:45:51.924Z,5.57
2022-08-10T04:48:41.271Z,5.55
2022-08-10T04:51:21.131Z,5.50
2022-08-10T04:54:04.738Z,4.70
2022-08-10T04:56:39.660Z,5.00
2022-08-10T04:59:10.530Z,5.00
2022-08-10T05:02:28.022Z,5.40
2022-08-10T05:04:36.308Z,5.03
2022-08-10T05:07:16.621Z,5.47
2022-08-10T05:10:05.041Z,5.05
2022-08-10T05:12:38.662Z,5.20
2022-08-10T05:15:10.394Z,4.90
2022-08-10T05:17:39.996Z,4.90
2022-08-10T05:20:11.061Z,4.70
2022-08-10T05:22:42.911Z,4.93
2022-08-10T05:25:17.748Z,4.82
2022-08-10T05:27:47.750Z,4.63
2022-08-10T05:30:21.128Z,5.43
2022-08-10T05:32:57.322Z,4.47
2022-08-10T05:35:52.910Z,4.63
2022-08-10T05:38:20.431Z,4.13
2022-08-10T05:40:49.939Z,3.58
2022-08-10T05:43:20.302Z,3.55
2022-08-10T05:46:19.210Z,3.78
2022-08-10T05:48:59.569Z,3.58
2022-08-10T05:51:30.593Z,4.38
2022-08-10T05:54:06.239Z,3.78
2022-08-10T05:56:56.057Z,3.83
2022-08-10T06:00:35.747Z,4.20
2022-08-10T06:02:45.648Z,3.83
2022-08-10T06:05:34.358Z,3.33
2022-08-10T06:08:20.525Z,3.25
2022-08-10T06:12:23.628Z,3.13
2022-08-10T06:14:15.720Z,2.58
2022-08-10T06:16:45.274Z,2.58
2022-08-10T06:19:14.708Z,3.00
2022-08-10T06:25:04.647Z,2.88
2022-08-10T06:27:34.613Z,2.20
2022-08-10T06:30:03.924Z,2.83
2022-08-10T06:32:55.367Z,2.60
2022-08-10T06:35:29.362Z,2.78
2022-08-10T06:38:02.045Z,2.90
2022-08-10T06:40:36.751Z,2.92
2022-08-10T06:43:10.766Z,2.47
2022-08-10T06:46:07.488Z,2.40
2022-08-10T06:48:50.875Z,2.33
2022-08-10T06:51:42.826Z,2.08
2022-08-10T06:54:14.569Z,2.55
2022-08-10T06:57:17.365Z,2.70
2022-08-10T07:00:06.617Z,2.65
2022-08-10T07:02:57.474Z,3.40
2022-08-10T07:05:38.919Z,2.97
2022-08-10T07:08:12.637Z,3.22
2022-08-10T07:10:46.296Z,3.28
2022-08-10T07:14:16.325Z,2.70
2022-08-10T07:16:13.970Z,3.00
2022-08-10T07:18:46.462Z,2.90
2022-08-10T07:21:17.918Z,2.55
2022-08-10T07:23:57.128Z,2.72
2022-08-10T07:26:31.154Z,2.83
2022-08-10T07:29:00.813Z,2.85
2022-08-10T07:31:31.080Z,2.90
2022-08-10T07:34:29.302Z,2.58
2022-08-10T07:37:06.807Z,2.65
2022-08-10T07:40:03.630Z,2.40
2022-08-10T07:42:32.894Z,2.50
2022-08-10T07:45:04.306Z,2.42
2022-08-10T07:47:53.957Z,2.30
2022-08-10T07:50:27.257Z,2.10
2022-08-10T07:53:02.743Z,2.38
2022-08-10T07:56:04.635Z,2.17
2022-08-10T07:58:29.984Z,2.00
2022-08-10T08:01:00.421Z,1.90
2022-08-10T08:03:32.717Z,2.05
2022-08-10T08:06:05.299Z,1.67
2022-08-10T08:08:43.904Z,2.17
2022-08-10T08:11:26.296Z,2.00
2022-08-10T08:13:56.499Z,2.20
2022-08-10T08:16:26.173Z,2.20
2022-08-10T08:24:08.455Z,2.70
2022-08-10T08:24:39.646Z,2.03
2022-08-10T08:27:09.031Z,2.30
2022-08-10T08:29:42.080Z,2.20
2022-08-10T08:32:11.815Z,2.30
2022-08-10T08:34:44.415Z,1.95
2022-08-10T08:38:28.805Z,2.10
2022-08-10T08:40:29.341Z,2.08
2022-08-10T08:43:31.320Z,2.40
2022-08-10T08:46:58.925Z,2.30
2022-08-10T08:50:10.244Z,1.75
2022-08-10T08:54:02.122Z,1.65
2022-08-10T08:56:34.793Z,1.77
2022-08-10T08:59:44.604Z,1.65
2022-08-10T09:02:54.678Z,1.73
2022-08-10T09:06:12.383Z,1.63
2022-08-10T09:09:12.901Z,1.45
2022-08-10T09:12:04.925Z,1.65
2022-08-10T09:14:56.601Z,1.38
2022-08-10T09:17:45.878Z,1.50
2022-08-10T09:20:37.346Z,1.60
2022-08-10T09:24:01.643Z,1.60
2022-08-10T09:26:42.377Z,1.65
2022-08-10T09:29:25.764Z,1.40
2022-08-10T09:36:17.073Z,1.27
2022-08-10T09:36:21.419Z,1.65
2022-08-10T09:38:54.840Z,1.40
2022-08-10T09:42:14.832Z,1.20
2022-08-10T09:44:57.975Z,1.45
2022-08-10T09:48:02.455Z,0.90
2022-08-10T09:51:44.746Z,1.27
2022-08-10T09:54:46.764Z,1.17
2022-08-10T09:58:12.403Z,1.27
2022-08-10T10:00:52.874Z,1.67
2022-08-10T10:03:31.765Z,1.33
2022-08-10T10:06:16.877Z,1.07
2022-08-10T10:09:18.726Z,1.10
2022-08-10T10:12:16.287Z,1.30
2022-08-10T10:15:31.757Z,1.20
2022-08-10T10:18:07.975Z,1.08
2022-08-10T10:21:05.614Z,1.20
2022-08-10T10:24:20.180Z,1.00
2022-08-10T10:27:18.188Z,1.38
2022-08-10T10:30:04.235Z,1.27
2022-08-10T10:33:04.246Z,0.98
2022-08-10T10:35:49.912Z,1.17
2022-08-10T10:38:22.855Z,0.95
2022-08-10T10:41:14.254Z,1.08
2022-08-10T10:44:21.758Z,1.00
2022-08-10T10:47:38.150Z,1.00
2022-08-10T10:50:34.971Z,1.20
2022-08-10T10:53:08.480Z,0.90
2022-08-10T10:56:13.337Z,1.30
2022-08-10T10:59:01.539Z,1.27
2022-08-10T11:02:15.990Z,1.08
2022-08-10T11:05:02.985Z,1.08
2022-08-10T11:08:00.497Z,1.10
2022-08-10T11:10:46.701Z,1.00
2022-08-10T11:14:27.629Z,0.90
2022-08-10T11:17:00.574Z,1.13
2022-08-10T11:20:01.599Z,1.10
2022-08-10T11:22:44.941Z,1.10
2022-08-10T11:25:31.901Z,1.42
2022-08-10T11:29:03.417Z,1.23
2022-08-10T11:31:59.340Z,1.00
2022-08-10T11:35:11.267Z,0.90
2022-08-10T11:38:31.398Z,1.00
2022-08-10T11:42:07.132Z,0.98
2022-08-10T11:44:43.725Z,1.13
2022-08-10T11:47:36.057Z,1.17
2022-08-10T11:50:36.928Z,0.98
2022-08-10T11:53:23.257Z,0.98
2022-08-10T11:55:59.406Z,0.90
2022-08-10T11:58:54.750Z,1.00
2022-08-10T12:01:31.664Z,1.00
2022-08-10T12:04:11.911Z,1.02
2022-08-10T12:06:55.110Z,1.20
2022-08-10T12:10:10.300Z,0.90
2022-08-10T12:12:17.620Z,1.30
2022-08-10T12:15:15.532Z,0.80
2022-08-10T12:18:01.891Z,1.08
2022-08-10T12:20:39.011Z,0.98
2022-08-10T12:24:02.844Z,1.00
2022-08-10T12:27:05.198Z,1.23
2022-08-10T12:29:50.496Z,0.98
2022-08-10T12:32:42.217Z,0.80
2022-08-10T12:35:38.488Z,0.90
2022-08-10T12:38:44.856Z,0.88
2022-08-10T12:41:44.060Z,0.88
2022-08-10T12:44:42.195Z,0.90
2022-08-10T12:47:17.160Z,1.10
2022-08-10T12:50:29.909Z,1.02
2022-08-10T12:53:11.387Z,0.98
2022-08-10T12:55:41.446Z,0.95
2022-08-10T12:58:59.456Z,1.00
2022-08-10T13:01:16.101Z,0.95
2022-08-10T13:04:23.699Z,0.95
2022-08-10T13:06:46.544Z,0.93
2022-08-10T13:09:21.546Z,0.90
2022-08-10T13:12:34.956Z,1.00
2022-08-10T13:15:50.805Z,0.93
2022-08-10T13:18:51.431Z,0.90
2022-08-10T13:21:21.400Z,0.90
2022-08-10T13:24:16.004Z,0.95
2022-08-10T13:27:26.103Z,0.90
2022-08-10T13:30:07.250Z,0.85
2022-08-10T13:35:12.406Z,1.00
2022-08-10T13:37:45.235Z,0.88
2022-08-10T13:40:19.308Z,1.00
2022-08-10T13:42:50.602Z,0.90
2022-08-10T13:45:22.430Z,1.10
2022-08-10T13:48:06.868Z,1.10
2022-08-10T13:50:38.811Z,1.20
2022-08-10T13:53:15.257Z,1.08
2022-08-10T13:55:56.452Z,0.90
2022-08-10T13:58:39.509Z,0.80
2022-08-10T14:01:21.362Z,1.30
2022-08-10T14:03:53.062Z,0.90
2022-08-10T14:06:29.598Z,0.88
2022-08-10T14:09:09.026Z,0.90
2022-08-10T14:11:41.696Z,1.00
2022-08-10T14:14:18.469Z,1.00
2022-08-10T14:16:47.931Z,0.95
2022-08-10T14:19:36.617Z,0.90
2022-08-10T14:22:07.214Z,0.80
2022-08-10T14:24:35.727Z,0.77
2022-08-10T14:27:10.884Z,0.90
2022-08-10T14:29:48.067Z,1.00
2022-08-10T14:32:24.043Z,1.17
2022-08-10T14:36:15.578Z,0.98
2022-08-10T14:37:57.663Z,1.13
2022-08-10T14:40:38.000Z,0.95
2022-08-10T14:43:13.935Z,1.05
2022-08-10T14:45:57.494Z,1.00
2022-08-10T14:48:45.927Z,1.27
2022-08-10T14:51:18.250Z,1.15
2022-08-10T14:53:54.609Z,1.50
2022-08-10T14:56:31.904Z,1.30
2022-08-10T14:59:09.469Z,1.00
2022-08-10T15:02:01.090Z,1.23
2022-08-10T15:04:34.400Z,1.08
2022-08-10T15:07:33.865Z,1.27
2022-08-10T15:10:04.455Z,1.13
2022-08-10T15:12:37.300Z,1.30
2022-08-10T15:15:18.244Z,1.67
2022-08-10T15:18:00.314Z,1.10
2022-08-10T15:20:33.473Z,1.15
2022-08-10T15:23:30.820Z,1.10
2022-08-10T15:26:11.265Z,1.02
2022-08-10T15:29:23.777Z,1.10
2022-08-10T15:31:59.527Z,1.50
2022-08-10T15:34:47.874Z,1.75
2022-08-10T15:37:39.688Z,1.40
2022-08-10T15:40:24.437Z,1.20
2022-08-10T15:43:05.539Z,1.20
2022-08-10T15:46:20.547Z,0.88
2022-08-10T15:49:01.361Z,0.85
2022-08-10T15:51:53.777Z,1.00
2022-08-10T15:54:33.552Z,1.00
2022-08-10T15:57:18.139Z,0.77
2022-08-10T15:59:54.976Z,0.80
2022-08-10T16:02:33.209Z,1.00
2022-08-10T16:06:00.786Z,0.95
2022-08-10T16:08:21.160Z,0.80
2022-08-10T16:11:22.155Z,1.27
2022-08-10T16:14:00.410Z,1.00
2022-08-10T16:16:37.809Z,1.20
2022-08-10T16:19:22.536Z,1.08
2022-08-10T16:22:33.990Z,1.20
2022-08-10T16:24:54.910Z,1.15
2022-08-10T16:27:28.409Z,1.15
2022-08-10T16:30:02.506Z,1.27
2022-08-10T16:32:35.019Z,1.00
2022-08-10T16:35:09.195Z,1.40
2022-08-10T16:37:57.184Z,1.40
2022-08-10T16:40:31.940Z,1.20
2022-08-10T16:43:04.214Z,1.33
2022-08-10T16:45:50.661Z,1.40
2022-08-10T16:48:50.016Z,1.10
2022-08-10T16:51:17.504Z,1.55
2022-08-10T16:53:48.472Z,1.25
2022-08-10T16:56:22.780Z,1.60
2022-08-10T16:58:57.580Z,1.65
2022-08-10T17:01:34.116Z,1.40
2022-08-10T17:04:10.084Z,1.65
2022-08-10T17:06:59.829Z,1.10
2022-08-10T17:09:35.277Z,1.48
2022-08-10T17:12:13.713Z,1.80
2022-08-10T17:14:44.266Z,1.30
2022-08-10T17:17:31.042Z,1.30
2022-08-10T17:20:30.018Z,1.60
2022-08-10T17:22:59.210Z,1.45
2022-08-10T17:25:48.962Z,1.90
2022-08-10T17:28:35.201Z,2.28
2022-08-10T17:31:45.059Z,1.52
2022-08-10T17:34:41.036Z,1.40
2022-08-10T17:37:21.169Z,2.17
2022-08-10T17:40:02.577Z,1.83
2022-08-10T17:42:32.487Z,1.60
2022-08-10T17:45:02.518Z,1.55
2022-08-10T17:47:33.673Z,2.00
2022-08-10T17:50:03.701Z,1.52
2022-08-10T17:52:33.946Z,2.15
2022-08-10T17:55:07.111Z,1.90
2022-08-10T17:57:41.118Z,1.77
2022-08-10T18:00:14.427Z,2.00
2022-08-10T18:02:49.448Z,1.90
2022-08-10T18:05:19.207Z,1.77
2022-08-10T18:07:52.914Z,1.80
2022-08-10T18:10:22.464Z,1.70
2022-08-10T18:15:27.333Z,1.80
2022-08-10T18:18:02.897Z,1.55
2022-08-10T18:20:38.679Z,2.05
2022-08-10T18:23:09.683Z,1.90
2022-08-10T18:25:45.302Z,1.63
2022-08-10T18:28:20.142Z,2.10
2022-08-10T18:30:54.055Z,2.97
2022-08-10T18:33:31.297Z,3.05
2022-08-10T18:36:04.752Z,3.03
2022-08-10T18:38:37.555Z,2.63
2022-08-10T18:41:37.758Z,2.75
2022-08-10T18:44:37.784Z,2.38
2022-08-10T18:50:14.270Z,2.00
2022-08-10T18:52:49.144Z,2.20
2022-08-10T18:55:39.591Z,1.80
2022-08-10T18:58:41.433Z,3.45
2022-08-10T19:01:44.089Z,2.40
2022-08-10T19:04:45.190Z,2.60
2022-08-10T19:07:35.581Z,2.50
2022-08-10T19:10:36.345Z,3.80
2022-08-10T19:13:34.050Z,4.07
2022-08-10T19:16:35.832Z,6.63
2022-08-10T19:19:26.168Z,12.02
2022-08-10T19:22:07.594Z,17.52
2022-08-10T19:25:02.624Z,21.58
2022-08-10T19:27:57.817Z,14.27
2022-08-10T19:31:08.856Z,10.57
2022-08-10T19:34:11.408Z,10.93
2022-08-10T19:37:07.963Z,10.10
2022-08-10T19:39:50.842Z,9.73
2022-08-10T19:42:44.601Z,12.68
2022-08-10T19:46:03.160Z,10.73
2022-08-10T19:49:11.593Z,9.38
2022-08-10T19:51:56.386Z,11.15
2022-08-10T19:54:55.048Z,10.82
2022-08-10T19:57:39.858Z,8.55
2022-08-10T20:00:19.522Z,5.07
2022-08-10T20:02:56.098Z,5.25
2022-08-10T20:05:43.764Z,4.22
2022-08-10T20:08:53.378Z,3.30
2022-08-10T20:11:55.178Z,3.20
2022-08-10T20:15:00.138Z,2.90
2022-08-10T20:17:51.491Z,3.00
2022-08-10T20:20:44.949Z,2.97
2022-08-10T20:23:23.673Z,3.10
2022-08-10T20:25:57.410Z,3.00
2022-08-10T20:29:05.111Z,3.67
2022-08-10T20:32:12.988Z,3.92
2022-08-10T20:34:50.320Z,3.40
2022-08-10T20:38:02.898Z,3.88
2022-08-10T20:40:42.371Z,3.75
2022-08-10T20:43:35.633Z,3.47
2022-08-10T20:46:27.661Z,3.30
2022-08-10T20:49:27.578Z,3.95
2022-08-10T20:52:02.264Z,3.80
2022-08-10T20:54:37.042Z,4.38
2022-08-10T20:58:03.933Z,3.75
2022-08-10T21:01:18.250Z,3.85
2022-08-10T21:04:40.956Z,3.50
2022-08-10T21:07:57.797Z,3.10
2022-08-10T21:10:42.810Z,3.17
2022-08-10T21:13:24.614Z,3.42
2022-08-10T21:16:04.485Z,4.28
2022-08-10T21:18:48.468Z,3.63
2022-08-10T21:21:41.855Z,3.15
2022-08-10T21:24:41.872Z,3.30
2022-08-10T21:27:37.467Z,3.90
2022-08-10T21:30:11.413Z,3.22
2022-08-10T21:32:55.432Z,3.25
2022-08-10T21:35:42.958Z,2.95
2022-08-10T21:39:20.048Z,3.08
2022-08-10T21:42:33.833Z,2.85
2022-08-10T21:45:59.246Z,2.92
2022-08-10T21:49:36.993Z,3.05
2022-08-10T21:52:53.749Z,3.03
2022-08-10T21:56:14.097Z,2.88
2022-08-10T21:59:15.744Z,3.38
2022-08-10T22:02:22.581Z,3.38
2022-08-10T22:05:23.168Z,3.75
2022-08-10T22:08:22.519Z,3.38
2022-08-10T22:11:17.736Z,2.80
2022-08-10T22:14:10.661Z,3.22
2022-08-10T22:17:22.842Z,3.10
2022-08-10T22:20:55.804Z,3.67
2022-08-10T22:24:41.473Z,3.13
2022-08-10T22:27:55.425Z,3.17
2022-08-10T22:31:22.791Z,3.00
2022-08-10T22:34:23.135Z,3.10
2022-08-10T22:37:45.083Z,3.05
2022-08-10T22:40:42.356Z,3.38
2022-08-10T22:43:42.773Z,3.30
2022-08-10T22:46:40.774Z,3.17
2022-08-10T22:49:09.735Z,3.20
2022-08-10T22:52:02.848Z,3.33
2022-08-10T22:55:06.707Z,2.85
2022-08-10T22:57:53.450Z,3.08
2022-08-10T23:00:31.313Z,2.83
2022-08-10T23:03:21.776Z,3.03
2022-08-10T23:06:04.127Z,2.72
2022-08-10T23:08:49.465Z,2.80
2022-08-10T23:11:32.284Z,3.00
2022-08-10T23:14:06.998Z,2.95
2022-08-10T23:17:03.719Z,3.30
2022-08-10T23:19:49.382Z,3.00
2022-08-10T23:22:31.538Z,2.95
2022-08-10T23:25:30.230Z,3.08
2022-08-10T23:28:12.249Z,3.00
2022-08-10T23:30:46.594Z,3.40
2022-08-10T23:33:37.519Z,3.10
2022-08-10T23:36:33.569Z,3.63
2022-08-10T23:39:25.728Z,3.55
2022-08-10T23:42:04.877Z,3.10
2022-08-10T23:44:41.800Z,3.10
2022-08-10T23:47:13.642Z,3.10
2022-08-10T23:49:44.446Z,3.28
2022-08-10T23:52:19.916Z,2.88
2022-08-10T23:54:56.448Z,2.80
2022-08-10T23:57:28.165Z,2.95
